Flight Track Log - Related Links

Times and Time Zones

All times are in EDT time to prevent confusion due to time zone crossing. See the SKW6345 flight status page for this flight to view local times or setup timezone preferences in your user account.

Time Position Orientation Groundspeed Altitude Reporting Facility
EDT Latitude Longitude Course Direction KTS MPH feet Rate Location/Type
Tue 03:31:18 PM 45.8022 -111.2169 229° Southwest 182 209 6,000  Level Salt Lake Center
Tue 03:32:20 PM 45.7756 -111.2969 244° Southwest 223 257 8,500 1,935 Climbing Salt Lake Center
Tue 03:33:22 PM 45.7453 -111.3839 244° Southwest 232 267 10,000 1,597 Climbing Salt Lake Center
Tue 03:34:00 PM 45.4798 -111.6498 230° Southwest  Level Estimated
Tue 03:34:24 PM 45.7328 -111.5222 263° West 281 323 11,800  Level Salt Lake Center
Tue 03:35:00 PM 45.4050 -111.7734 229° Southwest  Level Estimated
Tue 03:35:27 PM 45.7253 -111.6408 265° West 303 349 13,700  Level Salt Lake Center
Tue 03:36:00 PM 45.3301 -111.8967 229° Southwest  Level Estimated
Tue 03:36:29 PM 45.6775 -111.7442 237° Southwest 310 357 15,800  Level Salt Lake Center
Tue 03:37:31 PM 45.6308 -111.8467 237° Southwest 310 357 17,600 1,306 Climbing Salt Lake Center
Tue 03:38:33 PM 45.5842 -111.9503 237° Southwest 309 356 18,500 774 Climbing Salt Lake Center
Tue 03:39:35 PM 45.5333 -112.0622 237° Southwest 330 380 19,200 919 Climbing Salt Lake Center
Tue 03:40:37 PM 45.4672 -112.2039 236° Southwest 354 407 20,400 919 Climbing Salt Lake Center
Tue 03:41:39 PM 45.4119 -112.3261 237° Southwest 362 417 21,100 677 Climbing Salt Lake Center
Tue 03:42:41 PM 45.3539 -112.4492 236° Southwest 375 432 21,800 629 Climbing Salt Lake Center
Tue 03:43:43 PM 45.2972 -112.5731 237° Southwest 386 444 22,400 726 Climbing Salt Lake Center
Tue 03:44:45 PM 45.2292 -112.7183 236° Southwest 395 455 23,300 1,016 Climbing Salt Lake Center
Tue 03:45:47 PM 45.1708 -112.8414 236° Southwest 394 453 24,500 1,016 Climbing Salt Lake Center
Tue 03:46:49 PM 45.1025 -112.9847 236° Southwest 394 453 25,400 726 Climbing Salt Lake Center
Tue 03:47:51 PM 45.0453 -113.1086 237° Southwest 394 453 26,000 581 Climbing Salt Lake Center
Tue 03:48:53 PM 44.9744 -113.2561 236° Southwest 405 466 26,600 484 Climbing Salt Lake Center
Tue 03:49:55 PM 44.9147 -113.3847 237° Southwest 410 472 27,000 484 Climbing Salt Lake Center
Tue 03:50:57 PM 44.8397 -113.5356 235° Southwest 418 481 27,600 532 Climbing Salt Lake Center
Tue 03:51:59 PM 44.7775 -113.6658 236° Southwest 420 483 28,100 532 Climbing Salt Lake Center
Tue 03:53:01 PM 44.7044 -113.8178 236° Southwest 420 483 28,700 629 Climbing Salt Lake Center
Tue 03:54:03 PM 44.6383 -113.9578 236° Southwest 420 483 29,400 581 Climbing Salt Lake Center
Tue 03:55:05 PM 44.5728 -114.0847 234° Southwest 418 481 29,900 532 Climbing Salt Lake Center
Tue 03:56:07 PM 44.5011 -114.2344 236° Southwest 415 478 30,500 532 Climbing Salt Lake Center
Tue 03:57:09 PM 44.4392 -114.3614 236° Southwest 413 475 31,000 484 Climbing Salt Lake Center
Tue 03:58:11 PM 44.3642 -114.5086 235° Southwest 415 478 31,500 480 Climbing Salt Lake Center
Tue 03:59:14 PM 44.3017 -114.6344 235° Southwest 413 475 32,000 240 Climbing Salt Lake Center
Tue 04:00:16 PM 44.2275 -114.7814 235° Southwest 414 476 32,000  Level Salt Lake Center
Tue 04:01:18 PM 44.1625 -114.9108 235° Southwest 421 484 32,000  Level Salt Lake Center
Tue 04:02:20 PM 44.0953 -115.0428 235° Southwest 432 497 32,000  Level Salt Lake Center
Tue 04:03:22 PM 44.0169 -115.1953 234° Southwest 431 496 32,000  Level Salt Lake Center
Tue 04:04:24 PM 43.9508 -115.3256 235° Southwest 429 494 32,000  Level Salt Lake Center
Tue 04:05:26 PM 43.8722 -115.4775 234° Southwest 433 498 32,000  Level Salt Lake Center
Tue 04:06:28 PM 43.8058 -115.6089 235° Southwest 433 498 32,000  Level Salt Lake Center
Tue 04:07:30 PM 43.7261 -115.7614 234° Southwest 436 502 32,000  Level Salt Lake Center
Tue 04:08:32 PM 43.6578 -115.8931 234° Southwest 438 504 32,000  Level Salt Lake Center
Tue 04:09:34 PM 43.5789 -116.0444 234° Southwest 436 502 32,000  Level Salt Lake Center
Tue 04:10:36 PM 43.5103 -116.1756 234° Southwest 439 505 32,000  Level Salt Lake Center
Tue 04:11:38 PM 43.4411 -116.3061 234° Southwest 439 505 32,000  Level Salt Lake Center
Tue 04:12:40 PM 43.3600 -116.4572 234° Southwest 439 505 32,000  Level Salt Lake Center
Tue 04:13:42 PM 43.2900 -116.5881 234° Southwest 442 509 32,000  Level Salt Lake Center
Tue 04:14:44 PM 43.2094 -116.7392 234° Southwest 441 507 32,000  Level Salt Lake Center
Tue 04:15:46 PM 43.1394 -116.8667 233° Southwest 439 505 32,000  Level Salt Lake Center
Tue 04:16:48 PM 43.0586 -117.0164 234° Southwest 438 504 32,000  Level Salt Lake Center
Tue 04:17:50 PM 42.9900 -117.1439 234° Southwest 435 501 32,000  Level Salt Lake Center
Tue 04:18:52 PM 42.9089 -117.2922 233° Southwest 435 501 32,000  Level Salt Lake Center
Tue 04:19:54 PM 42.8389 -117.4186 233° Southwest 435 501 32,000  Level Salt Lake Center
Tue 04:20:56 PM 42.7581 -117.5667 233° Southwest 437 503 32,000  Level Salt Lake Center
Tue 04:21:58 PM 42.6881 -117.6919 233° Southwest 435 501 32,000  Level Salt Lake Center
Tue 04:23:00 PM 42.6061 -117.8378 233° Southwest 435 501 32,000  Level Salt Lake Center
Tue 04:24:02 PM 42.5097 -117.9214 213° Southwest 432 497 32,000  Level Salt Lake Center
Tue 04:25:04 PM 42.4033 -117.9847 204° Southwest 436 502 32,000  Level Salt Lake Center
Tue 04:26:06 PM 42.2803 -118.0589 204° Southwest 435 501 32,000  Level Salt Lake Center
Tue 04:27:08 PM 42.1747 -118.1236 204° Southwest 430 495 32,000  Level Salt Lake Center
Tue 04:28:10 PM 42.0522 -118.1989 205° Southwest 433 498 32,000  Level Salt Lake Center
Tue 04:29:12 PM 41.9469 -118.2622 204° Southwest 434 499 32,000  Level Salt Lake Center
Tue 04:30:14 PM 41.8239 -118.3347 204° Southwest 434 499 32,000  Level Salt Lake Center
Tue 04:31:16 PM 41.7186 -118.3983 204° Southwest 434 499 32,000  Level Salt Lake Center
Tue 04:32:18 PM 41.5969 -118.4697 204° Southwest 430 495 32,000  Level Salt Lake Center
Tue 04:33:20 PM 41.4917 -118.5322 204° Southwest 430 495 32,000  Level Salt Lake Center
Tue 04:34:22 PM 41.4017 -118.6236 217° Southwest 429 494 32,000  Level Salt Lake Center
Tue 04:35:23 PM 41.3097 -118.7539 227° Southwest 432 497 32,000  Level Salt Lake Center
Tue 04:36:25 PM 41.2306 -118.8617 226° Southwest 428 493 32,000  Level Salt Lake Center
Tue 04:37:27 PM 41.1383 -118.9883 226° Southwest 428 493 32,000  Level Salt Lake Center
Tue 04:38:29 PM 41.0581 -119.0967 226° Southwest 430 495 32,000  Level Salt Lake Center
Tue 04:39:31 PM 40.9653 -119.2219 226° Southwest 428 493 32,000  Level Salt Lake Center
Tue 04:40:33 PM 40.8839 -119.3286 225° Southwest 428 493 32,000  Level Salt Lake Center
Tue 04:41:35 PM 40.7886 -119.4575 226° Southwest 428 493 32,000  Level Salt Lake Center
Tue 04:42:37 PM 40.7061 -119.5669 225° Southwest 424 488 32,000  Level Salt Lake Center
Tue 04:43:39 PM 40.6219 -119.6786 225° Southwest 428 493 32,000  Level Salt Lake Center
Tue 04:44:40 PM 40.5403 -119.7867 225° Southwest 421 484 32,000  Level Salt Lake Center
Tue 04:45:42 PM 40.4567 -119.8975 225° Southwest 425 489 32,000  Level Salt Lake Center
Tue 04:46:44 PM 40.3728 -120.0064 225° Southwest 424 488 32,000  Level Salt Lake Center
Tue 04:47:46 PM 40.2733 -120.1364 225° Southwest 423 487 32,000  Level Salt Lake Center
Tue 04:48:48 PM 40.1897 -120.2458 225° Southwest 425 489 32,000  Level Salt Lake Center
Tue 04:50:06 PM 40.0922 -120.3753 225° Southwest 420 483 32,000  Level Oakland Center
Tue 04:51:08 PM 40.0042 -120.4858 224° Southwest 416 479 32,000  Level Oakland Center
Tue 04:52:09 PM 39.9211 -120.5928 225° Southwest 419 482 32,000  Level Oakland Center
Tue 04:53:10 PM 39.8375 -120.6994 224° Southwest 421 484 32,000  Level Oakland Center
Tue 04:54:12 PM 39.7542 -120.8056 224° Southwest 420 483 32,000  Level Oakland Center
Tue 04:55:13 PM 39.6706 -120.9103 224° Southwest 419 482 32,000  Level Oakland Center
Tue 04:56:15 PM 39.5697 -121.0378 224° Southwest 421 484 32,000  Level Oakland Center
Tue 04:57:16 PM 39.4861 -121.1442 224° Southwest 423 487 32,000  Level Oakland Center
Tue 04:58:17 PM 39.4031 -121.2492 224° Southwest 420 483 32,000  Level Oakland Center
Tue 04:59:19 PM 39.3189 -121.3547 224° Southwest 423 487 32,000  Level Oakland Center
Tue 05:00:20 PM 39.2361 -121.4592 224° Southwest 419 482 32,000  Level Oakland Center
Tue 05:01:22 PM 39.1525 -121.5631 224° Southwest 419 482 32,000  Level Oakland Center
Tue 05:02:23 PM 39.0683 -121.6672 224° Southwest 421 484 32,000  Level Oakland Center
Tue 05:03:24 PM 38.9675 -121.7919 224° Southwest 422 486 32,000  Level Oakland Center
Tue 05:04:26 PM 38.8828 -121.8958 224° Southwest 423 487 32,000  Level Oakland Center
Tue 05:05:27 PM 38.8006 -121.9983 224° Southwest 417 480 32,000 -49 Level Oakland Center
Tue 05:06:29 PM 38.7169 -122.1000 224° Southwest 417 480 31,900 -1,463 Descending Oakland Center
Tue 05:07:30 PM 38.6214 -122.2150 223° Southwest 426 490 29,000 -2,878 Descending Oakland Center
Tue 05:08:32 PM 38.5339 -122.3214 224° Southwest 435 501 26,000 -1,902 Descending Oakland Center
Tue 05:09:33 PM 38.4483 -122.4247 223° Southwest 428 493 25,100 -984 Descending Oakland Center
Tue 05:10:34 PM 38.3622 -122.5283 223° Southwest 427 491 24,000 -2,000 Descending Oakland Center
Tue 05:11:36 PM 38.2733 -122.6333 223° Southwest 435 501 21,000 -2,927 Descending Oakland Center
Tue 05:12:37 PM 38.1892 -122.7300 222° Southwest 422 486 18,000 -2,878 Descending Oakland Center
Tue 05:13:39 PM 38.0853 -122.7328 181° South 389 448 15,100 -2,829 Descending Oakland Center
Tue 05:14:40 PM 37.9608 -122.6928 166° South 391 450 12,200 -2,000 Descending Oakland Center
Tue 05:15:42 PM 37.8714 -122.6414 156° South 377 434 11,000 -830 Descending Oakland Center
Tue 05:16:14 PM 37.8333 -122.6000 139° Southeast 322 371 10,900  Descending Northern Cal TRACON
Tue 05:17:14 PM 37.7667 -122.5333 142° Southeast 285 328 11,000 50 Climbing Northern Cal TRACON
Tue 05:18:14 PM 37.7333 -122.4500 117° Southeast 243 280 11,000 -50 Level Northern Cal TRACON
Tue 05:19:14 PM 37.7000 -122.3833 122° Southeast 220 253 10,900 -1,300 Descending Northern Cal TRACON
Tue 05:20:14 PM 37.6833 -122.3000 104° East 229 264 8,400 -2,476 Descending Northern Cal TRACON
Tue 05:21:20 PM 37.6500 -122.2167 117° Southeast 237 273 5,700 -1,686 Descending Northern Cal TRACON
Tue 05:22:15 PM 37.6333 -122.1667 113° Southeast 225 259 5,000 -939 Descending Northern Cal TRACON
Tue 05:23:15 PM 37.5833 -122.1167 142° Southeast 202 232 3,900 -1,000 Descending Northern Cal TRACON
Tue 05:24:15 PM 37.5667 -122.1667 247° West 198 228 3,000 -800 Descending Northern Cal TRACON
Tue 05:25:15 PM 37.5667 -122.2333 270° West 183 211 2,300 -810 Descending Northern Cal TRACON
Tue 05:26:21 PM 37.5833 -122.2833 293° West 156 180 1,300 -857 Descending Northern Cal TRACON
Tue 05:27:21 PM 37.6000 -122.3333 293° West 130 150 500 -800 Descending Northern Cal TRACON

Login

Don't have an account? Register now (free) for customized features, flight alerts, and more!